createdAt,value
2016-05-24T00:00:54.498Z,12.06
2016-05-24T00:01:54.953Z,12.08
2016-05-24T00:02:54.754Z,12.08
2016-05-24T00:03:54.193Z,11.99
2016-05-24T00:04:54.118Z,12.01
2016-05-24T00:05:54.526Z,12.02
2016-05-24T00:06:54.514Z,12.06
2016-05-24T00:07:54.344Z,12.05
2016-05-24T00:08:54.394Z,12.02
2016-05-24T00:09:54.053Z,11.96
2016-05-24T00:10:54.415Z,12.02
2016-05-24T00:11:50.574Z,12.01
2016-05-24T00:12:53.608Z,12.04
2016-05-24T00:13:54.751Z,12.05
2016-05-24T00:14:53.519Z,12.04
2016-05-24T00:15:54.006Z,12.04
2016-05-24T00:16:50.588Z,12.05
2016-05-24T00:17:50.434Z,12.01
2016-05-24T00:18:50.093Z,11.96
2016-05-24T00:19:50.377Z,12.05
2016-05-24T00:20:50.192Z,12.01
2016-05-24T00:21:50.336Z,12.05
2016-05-24T00:22:50.307Z,12.04
2016-05-24T00:23:50.278Z,12.02
2016-05-24T00:24:50.280Z,12.05
2016-05-24T00:25:50.237Z,12.05
2016-05-24T00:26:50.051Z,12.04
2016-05-24T00:27:50.180Z,12.04
2016-05-24T00:28:50.010Z,12.01
2016-05-24T00:29:50.138Z,12.04
2016-05-24T00:30:49.953Z,12.04
2016-05-24T00:31:50.097Z,11.96
2016-05-24T00:32:50.068Z,12.01
2016-05-24T00:33:49.899Z,12.01
2016-05-24T00:34:49.870Z,12.01
2016-05-24T00:35:49.998Z,12.01
2016-05-24T00:36:49.984Z,12.01
2016-05-24T00:37:49.956Z,12.02
2016-05-24T00:38:49.912Z,11.96
2016-05-24T00:39:49.900Z,12.06
2016-05-24T00:40:49.887Z,12.05
2016-05-24T00:41:49.858Z,12.02
2016-05-24T00:42:49.673Z,11.93
2016-05-24T00:43:49.800Z,12.04
2016-05-24T00:44:49.788Z,12.02
2016-05-24T00:45:49.775Z,12.04
2016-05-24T00:46:49.747Z,12.01
2016-05-24T00:47:49.717Z,11.96
2016-05-24T00:48:49.689Z,11.96
2016-05-24T00:49:49.505Z,11.94
2016-05-24T00:50:49.633Z,12.01
2016-05-24T00:51:49.619Z,12.01
2016-05-24T00:52:49.591Z,11.99
2016-05-24T00:53:49.562Z,11.96
2016-05-24T00:54:49.549Z,11.87
2016-05-24T00:55:49.536Z,11.97
2016-05-24T00:56:49.492Z,11.9
2016-05-24T00:57:49.323Z,11.93
2016-05-24T00:58:49.451Z,11.8
2016-05-24T00:59:49.437Z,11.85
2016-05-24T01:00:49.404Z,11.93
2016-05-24T01:01:49.263Z,11.86
2016-05-24T01:02:49.419Z,11.97
2016-05-24T01:03:49.420Z,11.87
2016-05-24T01:04:49.434Z,11.86
2016-05-24T01:05:49.271Z,11.85
2016-05-24T01:06:49.409Z,11.9
2016-05-24T01:07:49.405Z,11.75
2016-05-24T01:08:49.388Z,11.87
2016-05-24T01:09:49.229Z,11.75
2016-05-24T01:10:49.364Z,11.83
2016-05-24T01:11:49.339Z,11.82
2016-05-24T01:12:49.315Z,11.8
2016-05-24T01:13:49.289Z,11.83
2016-05-24T01:14:49.281Z,11.74
2016-05-24T01:15:49.099Z,11.78
2016-05-24T01:16:49.243Z,11.83
2016-05-24T01:17:49.216Z,11.82
2016-05-24T01:18:49.173Z,11.71
2016-05-24T01:19:49.160Z,11.85
2016-05-24T01:20:49.148Z,11.87
2016-05-24T01:21:49.106Z,11.75
2016-05-24T01:22:49.108Z,11.77
2016-05-24T01:23:49.065Z,11.75
2016-05-24T01:24:49.051Z,11.74
2016-05-24T01:25:49.024Z,11.83
2016-05-24T01:26:48.995Z,11.82
2016-05-24T01:27:48.827Z,11.74
2016-05-24T01:28:48.954Z,11.86
2016-05-24T01:29:48.786Z,11.8
2016-05-24T01:30:48.897Z,11.78
2016-05-24T01:31:48.886Z,11.77
2016-05-24T01:32:48.857Z,11.82
2016-05-24T01:33:48.828Z,11.77
2016-05-24T01:34:48.814Z,11.68
2016-05-24T01:35:48.786Z,11.85
2016-05-24T01:36:48.757Z,11.82
2016-05-24T01:37:48.730Z,11.82
2016-05-24T01:38:48.717Z,11.83
2016-05-24T01:39:48.688Z,11.78
2016-05-24T01:40:48.503Z,11.75
2016-05-24T01:41:48.662Z,11.77
2016-05-24T01:42:48.618Z,11.78
2016-05-24T01:43:48.588Z,11.75
2016-05-24T01:44:48.561Z,11.74
2016-05-24T01:45:48.548Z,11.8
2016-05-24T01:46:48.363Z,11.83
2016-05-24T01:47:48.506Z,11.74
2016-05-24T01:48:48.477Z,11.77
2016-05-24T01:49:48.449Z,11.75
2016-05-24T01:50:48.265Z,11.83
2016-05-24T01:51:48.392Z,11.75
2016-05-24T01:52:48.379Z,11.74
2016-05-24T01:53:48.194Z,11.77
2016-05-24T01:54:48.322Z,11.72
2016-05-24T01:55:48.325Z,11.72
2016-05-24T01:56:48.281Z,11.74
2016-05-24T01:57:48.251Z,11.65
2016-05-24T01:58:48.239Z,11.74
2016-05-24T01:59:48.211Z,11.68
2016-05-24T02:00:48.182Z,11.71
2016-05-24T02:01:48.153Z,11.52
2016-05-24T02:02:47.984Z,11.59
2016-05-24T02:03:48.111Z,11.57
2016-05-24T02:04:48.083Z,11.7
2016-05-24T02:05:48.069Z,11.62
2016-05-24T02:06:48.026Z,11.54
2016-05-24T02:07:48.045Z,11.64
2016-05-24T02:08:48.000Z,11.53
2016-05-24T02:09:47.971Z,11.57
2016-05-24T02:10:47.943Z,11.56
2016-05-24T02:11:47.774Z,11.56
2016-05-24T02:12:47.902Z,11.61
2016-05-24T02:13:47.874Z,11.54
2016-05-24T02:14:48.297Z,11.56
2016-05-24T02:15:47.816Z,11.59
2016-05-24T02:16:51.537Z,11.54
2016-05-24T02:17:51.571Z,11.56
2016-05-24T02:18:47.746Z,11.5
2016-05-24T02:19:47.717Z,11.5
2016-05-24T02:20:47.705Z,11.53
2016-05-24T02:21:47.676Z,11.59
2016-05-24T02:22:47.506Z,11.65
2016-05-24T02:23:47.478Z,11.59
2016-05-24T02:24:47.606Z,11.61
2016-05-24T02:25:47.577Z,11.54
2016-05-24T02:26:47.564Z,11.57
2016-05-24T02:27:47.551Z,11.54
2016-05-24T02:28:47.507Z,11.59
2016-05-24T02:29:47.729Z,11.56
2016-05-24T02:30:47.465Z,11.61
2016-05-24T02:31:47.437Z,11.53
2016-05-24T02:32:47.408Z,11.52
2016-05-24T02:33:47.395Z,11.56
2016-05-24T02:34:47.210Z,11.54
2016-05-24T02:35:47.339Z,11.57
2016-05-24T02:36:47.325Z,11.5
2016-05-24T02:37:47.297Z,11.47
2016-05-24T02:38:47.283Z,11.56
2016-05-24T02:39:47.255Z,11.46
2016-05-24T02:40:47.071Z,11.5
2016-05-24T02:41:47.214Z,11.47
2016-05-24T02:42:47.170Z,11.46
2016-05-24T02:43:47.157Z,11.43
2016-05-24T02:44:47.424Z,11.44
2016-05-24T02:45:47.209Z,11.46
2016-05-24T02:46:47.149Z,11.47
2016-05-24T02:47:46.886Z,11.39
2016-05-24T02:48:46.936Z,11.44
2016-05-24T02:49:46.766Z,11.44
2016-05-24T02:50:46.973Z,11.52
2016-05-24T02:51:46.959Z,11.44
2016-05-24T02:52:46.931Z,11.41
2016-05-24T02:53:46.902Z,11.47
2016-05-24T02:54:46.874Z,11.39
2016-05-24T02:55:46.704Z,11.36
2016-05-24T02:56:46.832Z,11.41
2016-05-24T02:57:46.804Z,11.39
2016-05-24T02:58:46.635Z,11.44
2016-05-24T02:59:47.200Z,11.41
2016-05-24T03:00:46.734Z,11.46
2016-05-24T03:01:46.705Z,11.36
2016-05-24T03:02:46.692Z,11.46
2016-05-24T03:03:46.648Z,11.46
2016-05-24T03:04:46.636Z,11.43
2016-05-24T03:05:46.466Z,11.35
2016-05-24T03:06:46.594Z,11.41
2016-05-24T03:07:46.565Z,11.35
2016-05-24T03:08:46.396Z,11.43
2016-05-24T03:09:46.524Z,11.43
2016-05-24T03:10:46.495Z,11.44
2016-05-24T03:11:46.466Z,11.38
2016-05-24T03:12:46.453Z,11.47
2016-05-24T03:13:46.424Z,11.41
2016-05-24T03:14:46.412Z,11.43
2016-05-24T03:15:46.368Z,11.43
2016-05-24T03:16:46.199Z,11.36
2016-05-24T03:17:46.327Z,11.47
2016-05-24T03:18:46.313Z,11.46
2016-05-24T03:19:46.284Z,11.46
2016-05-24T03:20:46.256Z,11.36
2016-05-24T03:21:46.227Z,11.38
2016-05-24T03:22:46.215Z,11.38
2016-05-24T03:23:46.171Z,11.36
2016-05-24T03:24:46.001Z,11.36
2016-05-24T03:25:46.145Z,11.43
2016-05-24T03:26:46.116Z,11.46
2016-05-24T03:27:45.775Z,11.35
2016-05-24T03:28:46.075Z,11.34
2016-05-24T03:29:46.374Z,11.41
2016-05-24T03:30:45.861Z,11.36
2016-05-24T03:31:45.973Z,11.39
2016-05-24T03:32:45.961Z,11.34
2016-05-24T03:33:45.775Z,11.38
2016-05-24T03:34:45.762Z,11.43
2016-05-24T03:35:45.890Z,11.44
2016-05-24T03:36:45.705Z,11.32
2016-05-24T03:37:45.834Z,11.34
2016-05-24T03:38:45.820Z,11.34
2016-05-24T03:39:45.792Z,11.31
2016-05-24T03:40:45.763Z,11.31
2016-05-24T03:41:45.750Z,11.32
2016-05-24T03:42:45.424Z,11.38
2016-05-24T03:43:45.537Z,11.35
2016-05-24T03:44:45.946Z,11.47
2016-05-24T03:45:45.636Z,11.34
2016-05-24T03:46:45.623Z,11.38
2016-05-24T03:47:45.610Z,11.39
2016-05-24T03:48:45.565Z,11.36
2016-05-24T03:49:45.553Z,11.43
2016-05-24T03:50:45.368Z,11.41
2016-05-24T03:51:45.512Z,11.41
2016-05-24T03:52:45.326Z,11.39
2016-05-24T03:53:45.455Z,11.46
2016-05-24T03:54:45.426Z,11.34
2016-05-24T03:55:45.413Z,11.39
2016-05-24T03:56:45.228Z,11.34
2016-05-24T03:57:45.356Z,11.46
2016-05-24T03:58:45.343Z,11.41
2016-05-24T03:59:45.454Z,11.36
2016-05-24T04:00:45.286Z,11.47
2016-05-24T04:01:45.257Z,11.46
2016-05-24T04:02:45.087Z,11.32
2016-05-24T04:03:45.215Z,11.43
2016-05-24T04:04:45.187Z,11.41
2016-05-24T04:05:45.175Z,11.41
2016-05-24T04:06:45.130Z,11.39
2016-05-24T04:07:45.117Z,11.43
2016-05-24T04:08:45.088Z,11.44
2016-05-24T04:09:45.060Z,11.46
2016-05-24T04:10:45.047Z,11.38
2016-05-24T04:11:45.034Z,11.39
2016-05-24T04:12:44.989Z,11.36
2016-05-24T04:13:44.961Z,11.36
2016-05-24T04:14:44.635Z,11.46
2016-05-24T04:15:44.935Z,11.36
2016-05-24T04:16:44.908Z,11.46
2016-05-24T04:17:44.597Z,11.36
2016-05-24T04:18:44.694Z,11.39
2016-05-24T04:19:44.821Z,11.38
2016-05-24T04:20:44.792Z,11.43
2016-05-24T04:21:44.780Z,11.44
2016-05-24T04:22:44.751Z,11.43
2016-05-24T04:23:44.582Z,11.32
2016-05-24T04:24:44.710Z,11.32
2016-05-24T04:25:44.681Z,11.43
2016-05-24T04:26:44.652Z,11.28
2016-05-24T04:27:44.639Z,11.31
2016-05-24T04:28:44.455Z,11.32
2016-05-24T04:29:44.520Z,11.34
2016-05-24T04:30:44.554Z,11.29
2016-05-24T04:31:44.525Z,11.35
2016-05-24T04:32:44.512Z,11.32
2016-05-24T04:33:44.484Z,11.47
2016-05-24T04:34:44.456Z,11.34
2016-05-24T04:35:44.442Z,11.34
2016-05-24T04:36:44.273Z,11.34
2016-05-24T04:37:44.385Z,11.36
2016-05-24T04:38:44.356Z,11.31
2016-05-24T04:39:44.344Z,11.39
2016-05-24T04:40:44.315Z,11.32
2016-05-24T04:41:44.130Z,11.43
2016-05-24T04:42:44.117Z,11.44
2016-05-24T04:43:43.932Z,11.39
2016-05-24T04:44:44.217Z,11.43
2016-05-24T04:45:44.203Z,11.47
2016-05-24T04:46:44.175Z,11.38
2016-05-24T04:47:44.146Z,11.46
2016-05-24T04:48:44.133Z,11.47
2016-05-24T04:49:44.104Z,11.52
2016-05-24T04:50:44.077Z,11.43
2016-05-24T04:51:44.049Z,11.44
2016-05-24T04:52:44.035Z,11.38
2016-05-24T04:53:43.990Z,11.36
2016-05-24T04:54:43.837Z,11.41
2016-05-24T04:55:43.980Z,11.46
2016-05-24T04:56:43.921Z,11.52
2016-05-24T04:57:43.908Z,11.5
2016-05-24T04:58:43.879Z,11.5
2016-05-24T04:59:43.865Z,11.47
2016-05-24T05:00:43.869Z,11.47
2016-05-24T05:01:43.653Z,11.54
2016-05-24T05:02:43.624Z,11.53
2016-05-24T05:03:43.768Z,11.54
2016-05-24T05:04:43.754Z,11.54
2016-05-24T05:05:43.726Z,11.56
2016-05-24T05:06:43.681Z,11.54
2016-05-24T05:07:43.669Z,11.53
2016-05-24T05:08:43.656Z,11.64
2016-05-24T05:09:43.612Z,11.64
2016-05-24T05:10:43.599Z,11.52
2016-05-24T05:11:43.570Z,11.53
2016-05-24T05:12:43.386Z,11.52
2016-05-24T05:13:43.373Z,11.64
2016-05-24T05:14:43.485Z,11.53
2016-05-24T05:15:43.488Z,11.52
2016-05-24T05:16:43.458Z,11.71
2016-05-24T05:17:43.274Z,11.71
2016-05-24T05:18:43.246Z,11.72
2016-05-24T05:19:43.374Z,11.75
2016-05-24T05:20:43.344Z,11.74
2016-05-24T05:21:43.332Z,11.74
2016-05-24T05:22:43.303Z,11.74
2016-05-24T05:23:43.275Z,11.74
2016-05-24T05:24:43.261Z,11.75
2016-05-24T05:25:43.233Z,11.72
2016-05-24T05:26:43.064Z,11.75
2016-05-24T05:27:43.191Z,11.77
2016-05-24T05:28:43.162Z,11.75
2016-05-24T05:29:43.134Z,11.85
2016-05-24T05:30:42.965Z,11.8
2016-05-24T05:31:43.093Z,11.89
2016-05-24T05:32:43.079Z,11.83
2016-05-24T05:33:43.037Z,11.87
2016-05-24T05:34:43.023Z,11.99
2016-05-24T05:35:42.994Z,11.97
2016-05-24T05:36:42.966Z,11.85
2016-05-24T05:37:42.781Z,11.86
2016-05-24T05:38:42.767Z,11.97
2016-05-24T05:39:42.895Z,11.85
2016-05-24T05:40:42.883Z,11.82
2016-05-24T05:41:42.870Z,11.87
2016-05-24T05:42:42.825Z,11.86
2016-05-24T05:43:42.813Z,11.93
2016-05-24T05:44:42.628Z,11.83
2016-05-24T05:45:43.005Z,11.8
2016-05-24T05:46:42.617Z,11.83
2016-05-24T05:47:42.713Z,11.96
2016-05-24T05:48:42.701Z,11.96
2016-05-24T05:49:42.658Z,11.86
2016-05-24T05:50:42.488Z,11.87
2016-05-24T05:51:42.631Z,11.94
2016-05-24T05:52:42.587Z,11.93
2016-05-24T05:53:42.574Z,11.96
2016-05-24T05:54:42.545Z,11.85
2016-05-24T05:55:42.516Z,11.94
2016-05-24T05:56:42.504Z,12.02
2016-05-24T05:57:42.304Z,11.96
2016-05-24T05:58:42.446Z,11.96
2016-05-24T05:59:42.449Z,12.01
2016-05-24T06:00:42.859Z,12.01
2016-05-24T06:01:42.376Z,11.94
2016-05-24T06:02:42.192Z,12.06
2016-05-24T06:03:42.319Z,12.15
2016-05-24T06:04:42.307Z,12.11
2016-05-24T06:05:42.137Z,12.11
2016-05-24T06:06:42.265Z,12.12
2016-05-24T06:07:42.064Z,12.19
2016-05-24T06:08:42.239Z,12.19
2016-05-24T06:09:42.194Z,12.23
2016-05-24T06:10:42.213Z,12.23
2016-05-24T06:11:42.498Z,12.3
2016-05-24T06:12:43.500Z,12.3
2016-05-24T06:13:42.080Z,12.41
2016-05-24T06:14:42.068Z,12.45
2016-05-24T06:15:46.055Z,12.48
2016-05-24T06:16:43.229Z,12.45
2016-05-24T06:17:41.997Z,12.33
2016-05-24T06:18:41.985Z,12.51
2016-05-24T06:19:41.956Z,12.44
2016-05-24T06:20:41.928Z,12.45
2016-05-24T06:21:41.915Z,12.49
2016-05-24T06:22:41.886Z,12.51
2016-05-24T06:23:41.857Z,12.37
2016-05-24T06:24:41.829Z,12.48
2016-05-24T06:25:41.816Z,12.45
2016-05-24T06:26:41.632Z,12.45
2016-05-24T06:27:41.774Z,12.54
2016-05-24T06:28:41.746Z,12.63
2016-05-24T06:29:41.718Z,12.45
2016-05-24T06:30:41.595Z,12.51
2016-05-24T06:31:41.676Z,12.57
2016-05-24T06:32:41.648Z,12.59
2016-05-24T06:33:41.463Z,12.59
2016-05-24T06:34:41.606Z,12.56
2016-05-24T06:35:41.578Z,12.56
2016-05-24T06:36:41.393Z,12.54
2016-05-24T06:37:41.379Z,12.56
2016-05-24T06:38:41.523Z,12.59
2016-05-24T06:39:41.479Z,12.7
2016-05-24T06:40:41.467Z,12.75
2016-05-24T06:41:41.437Z,12.74
2016-05-24T06:42:41.424Z,12.6
2016-05-24T06:43:41.411Z,12.62
2016-05-24T06:44:41.367Z,12.64
2016-05-24T06:45:41.214Z,12.6
2016-05-24T06:46:41.342Z,12.7
2016-05-24T06:47:41.313Z,12.67
2016-05-24T06:48:41.284Z,12.67
2016-05-24T06:49:41.272Z,12.64
2016-05-24T06:50:41.431Z,12.66
2016-05-24T06:51:41.214Z,12.74
2016-05-24T06:52:41.202Z,12.7
2016-05-24T06:53:41.172Z,12.67
2016-05-24T06:54:41.175Z,12.64
2016-05-24T06:55:41.132Z,12.74
2016-05-24T06:56:41.102Z,12.7
2016-05-24T06:57:41.074Z,12.69
2016-05-24T06:58:41.124Z,12.75
2016-05-24T06:59:41.018Z,12.77
2016-05-24T07:00:40.864Z,12.75
2016-05-24T07:01:40.991Z,12.75
2016-05-24T07:02:40.979Z,12.75
2016-05-24T07:03:40.934Z,12.69
2016-05-24T07:04:40.921Z,12.75
2016-05-24T07:05:40.893Z,12.79
2016-05-24T07:06:40.864Z,12.81
2016-05-24T07:07:40.867Z,12.79
2016-05-24T07:08:40.667Z,12.74
2016-05-24T07:09:40.810Z,12.81
2016-05-24T07:10:40.765Z,12.92
2016-05-24T07:11:40.596Z,12.87
2016-05-24T07:12:40.740Z,12.84
2016-05-24T07:13:40.696Z,12.93
2016-05-24T07:14:40.683Z,12.92
2016-05-24T07:15:40.716Z,12.89
2016-05-24T07:16:40.672Z,12.99
2016-05-24T07:17:40.612Z,12.99
2016-05-24T07:18:40.599Z,13.07
2016-05-24T07:19:40.571Z,13.06
2016-05-24T07:20:40.605Z,13.15
2016-05-24T07:21:40.530Z,13.17
2016-05-24T07:22:40.500Z,13.18
2016-05-24T07:23:40.566Z,13.17
2016-05-24T07:24:40.491Z,13.17
2016-05-24T07:25:40.494Z,13.24
2016-05-24T07:26:40.418Z,13.06
2016-05-24T07:27:40.452Z,13.03
2016-05-24T07:28:40.064Z,13.03
2016-05-24T07:29:40.348Z,13.06
2016-05-24T07:30:40.022Z,13.2
2016-05-24T07:31:40.306Z,13.18
2016-05-24T07:32:40.277Z,13.32
2016-05-24T07:33:40.249Z,13.38
2016-05-24T07:34:40.237Z,13.3
2016-05-24T07:35:40.207Z,13.29
2016-05-24T07:36:40.179Z,13.22
2016-05-24T07:37:40.166Z,13.17
2016-05-24T07:38:40.138Z,13.21
2016-05-24T07:39:39.968Z,13.29
2016-05-24T07:40:39.956Z,13.27
2016-05-24T07:41:40.083Z,13.29
2016-05-24T07:42:40.054Z,13.33
2016-05-24T07:43:40.089Z,13.38
2016-05-24T07:44:40.013Z,13.36
2016-05-24T07:45:40.063Z,13.32
2016-05-24T07:46:39.956Z,13.36
2016-05-24T07:47:39.942Z,13.4
2016-05-24T07:48:39.915Z,13.37
2016-05-24T07:49:39.902Z,13.29
2016-05-24T07:50:39.873Z,13.18
2016-05-24T07:51:39.689Z,13.25
2016-05-24T07:52:39.831Z,13.27
2016-05-24T07:53:39.647Z,13.3
2016-05-24T07:54:39.883Z,13.29
2016-05-24T07:55:39.871Z,13.2
2016-05-24T07:56:39.577Z,13.3
2016-05-24T07:57:39.705Z,13.55
2016-05-24T07:58:39.879Z,13.61
2016-05-24T07:59:39.663Z,13.52
2016-05-24T08:00:39.602Z,13.61
2016-05-24T08:01:39.621Z,13.38
2016-05-24T08:02:39.608Z,13.46
2016-05-24T08:03:39.627Z,13.59
2016-05-24T08:04:39.646Z,13.52
2016-05-24T08:05:39.648Z,13.61
2016-05-24T08:06:39.526Z,13.65
2016-05-24T08:07:39.496Z,13.71
2016-05-24T08:08:39.484Z,13.65
2016-05-24T08:09:39.440Z,13.74
2016-05-24T08:10:39.427Z,13.81
2016-05-24T08:11:39.507Z,13.88
2016-05-24T08:12:39.370Z,13.79
2016-05-24T08:13:39.357Z,13.96
2016-05-24T08:14:39.172Z,13.87
2016-05-24T08:15:39.175Z,13.8
2016-05-24T08:16:39.303Z,13.74
2016-05-24T08:17:39.274Z,13.52
2016-05-24T08:18:39.089Z,13.52
2016-05-24T08:19:39.216Z,13.59
2016-05-24T08:20:39.047Z,13.63
2016-05-24T08:21:39.176Z,13.47
2016-05-24T08:22:39.209Z,13.56
2016-05-24T08:23:39.150Z,13.67
2016-05-24T08:24:39.122Z,13.52
2016-05-24T08:25:38.858Z,13.62
2016-05-24T08:26:39.063Z,13.24
2016-05-24T08:27:39.066Z,13.33
2016-05-24T08:28:39.022Z,13.44
2016-05-24T08:29:38.838Z,13.46
2016-05-24T08:30:42.262Z,13.37
2016-05-24T08:31:38.827Z,13.32
2016-05-24T08:32:38.939Z,13.38
2016-05-24T08:33:39.004Z,13.56
2016-05-24T08:34:38.898Z,13.74
2016-05-24T08:35:39.041Z,13.83
2016-05-24T08:36:38.700Z,13.87
2016-05-24T08:37:38.843Z,13.8
2016-05-24T08:38:38.659Z,13.8
2016-05-24T08:39:38.770Z,13.67
2016-05-24T08:40:38.835Z,13.7
2016-05-24T08:41:38.745Z,13.58
2016-05-24T08:42:38.716Z,13.67
2016-05-24T08:43:38.704Z,13.73
2016-05-24T08:44:38.675Z,13.77
2016-05-24T08:45:38.724Z,13.81
2016-05-24T08:46:38.648Z,13.95
2016-05-24T08:47:38.604Z,13.98
2016-05-24T08:48:38.606Z,13.95
2016-05-24T08:49:38.766Z,13.96
2016-05-24T08:50:38.254Z,13.96
2016-05-24T08:51:38.365Z,14.07
2016-05-24T08:52:38.492Z,14.09
2016-05-24T08:53:38.324Z,14.14
2016-05-24T08:54:38.467Z,14.19
2016-05-24T08:55:38.422Z,14.17
2016-05-24T08:56:38.411Z,14.16
2016-05-24T08:57:38.241Z,14.02
2016-05-24T08:58:38.478Z,13.92
2016-05-24T08:59:38.355Z,13.91
2016-05-24T09:00:38.561Z,13.92
2016-05-24T09:01:38.142Z,13.99
2016-05-24T09:02:38.285Z,13.96
2016-05-24T09:03:38.117Z,13.96
2016-05-24T09:04:38.229Z,14.09
2016-05-24T09:05:38.246Z,13.95
2016-05-24T09:06:38.046Z,14.07
2016-05-24T09:07:38.158Z,14.04
2016-05-24T09:08:38.146Z,14.14
2016-05-24T09:09:38.179Z,14.02
2016-05-24T09:10:38.198Z,14.16
2016-05-24T09:11:38.091Z,14.21
2016-05-24T09:12:38.141Z,14.21
2016-05-24T09:13:38.034Z,14.38
2016-05-24T09:14:37.865Z,14.2
2016-05-24T09:15:37.962Z,14.35
2016-05-24T09:16:37.823Z,14.31
2016-05-24T09:17:37.982Z,14.35
2016-05-24T09:18:37.937Z,14.37
2016-05-24T09:19:37.940Z,14.39
2016-05-24T09:20:37.912Z,14.47
2016-05-24T09:21:37.946Z,14.31
2016-05-24T09:22:37.839Z,14.2
2016-05-24T09:23:37.920Z,14.19
2016-05-24T09:24:37.798Z,14.27
2016-05-24T09:25:37.786Z,14.16
2016-05-24T09:26:37.756Z,14.2
2016-05-24T09:27:37.758Z,14.29
2016-05-24T09:28:37.731Z,14.27
2016-05-24T09:29:37.702Z,14.34
2016-05-24T09:30:37.689Z,14.24
2016-05-24T09:31:37.708Z,14.37
2016-05-24T09:32:37.647Z,14.35
2016-05-24T09:33:37.603Z,14.5
2016-05-24T09:34:37.653Z,14.57
2016-05-24T09:35:37.577Z,14.64
2016-05-24T09:36:37.642Z,14.65
2016-05-24T09:37:37.443Z,14.64
2016-05-24T09:38:37.335Z,14.65
2016-05-24T09:39:37.479Z,14.67
2016-05-24T09:40:37.466Z,14.67
2016-05-24T09:41:37.484Z,14.67
2016-05-24T09:42:37.409Z,14.61
2016-05-24T09:43:37.396Z,14.65
2016-05-24T09:44:37.367Z,14.9
2016-05-24T09:45:37.245Z,14.88
2016-05-24T09:46:37.637Z,14.99
2016-05-24T09:47:37.376Z,15.08
2016-05-24T09:48:37.285Z,14.95
2016-05-24T09:49:37.270Z,14.84
2016-05-24T09:50:37.181Z,14.98
2016-05-24T09:51:37.073Z,15.13
2016-05-24T09:52:37.217Z,15.24
2016-05-24T09:53:37.189Z,15.35
2016-05-24T09:54:37.003Z,15.19
2016-05-24T09:55:37.912Z,15.17
2016-05-24T09:56:36.978Z,15.11
2016-05-24T09:57:36.949Z,15.13
2016-05-24T09:58:37.124Z,15.13
2016-05-24T09:59:37.064Z,15.2
2016-05-24T10:00:37.161Z,15.12
2016-05-24T10:01:37.022Z,15.24
2016-05-24T10:02:37.010Z,15.09
2016-05-24T10:03:36.809Z,14.99
2016-05-24T10:04:36.952Z,14.99
2016-05-24T10:05:36.954Z,15.03
2016-05-24T10:06:36.612Z,14.98
2016-05-24T10:07:36.918Z,15.09
2016-05-24T10:08:36.926Z,14.99
2016-05-24T10:09:36.936Z,15.11
2016-05-24T10:10:36.929Z,15.2
2016-05-24T10:11:36.773Z,15.38
2016-05-24T10:12:36.924Z,15.33
2016-05-24T10:13:36.591Z,15.42
2016-05-24T10:14:39.055Z,15.33
2016-05-24T10:15:37.457Z,15.26
2016-05-24T10:16:36.714Z,15.33
2016-05-24T10:17:36.876Z,15.38
2016-05-24T10:18:36.819Z,15.27
2016-05-24T10:19:36.808Z,15.26
2016-05-24T10:20:36.799Z,15.2
2016-05-24T10:21:38.912Z,15.12
2016-05-24T10:22:36.744Z,15.13
2016-05-24T10:23:36.733Z,15.11
2016-05-24T10:24:36.704Z,15.13
2016-05-24T10:25:36.536Z,15.05
2016-05-24T10:26:38.478Z,14.87
2016-05-24T10:27:36.512Z,15.01
2016-05-24T10:28:36.625Z,14.99
2016-05-24T10:29:36.612Z,14.93
2016-05-24T10:30:37.021Z,14.84
2016-05-24T10:31:36.571Z,14.84
2016-05-24T10:32:36.387Z,14.8
2016-05-24T10:33:36.529Z,14.86
2016-05-24T10:34:36.579Z,14.86
2016-05-24T10:35:36.331Z,14.78
2016-05-24T10:36:36.459Z,14.95
2016-05-24T10:37:36.446Z,14.84
2016-05-24T10:38:36.262Z,14.93
2016-05-24T10:39:36.561Z,14.83
2016-05-24T10:40:36.470Z,14.95
2016-05-24T10:41:36.379Z,14.8
2016-05-24T10:42:36.334Z,14.84
2016-05-24T10:43:36.416Z,14.78
2016-05-24T10:44:36.325Z,14.91
2016-05-24T10:45:36.280Z,14.93
2016-05-24T10:46:36.236Z,14.98
2016-05-24T10:47:36.067Z,15.19
2016-05-24T10:48:36.226Z,15.3
2016-05-24T10:49:36.182Z,15.36
2016-05-24T10:50:36.169Z,15.48
2016-05-24T10:51:36.156Z,15.6
2016-05-24T10:52:36.127Z,15.75
2016-05-24T10:53:36.114Z,15.86
2016-05-24T10:54:36.195Z,15.99
2016-05-24T10:55:36.166Z,16.33
2016-05-24T10:56:36.107Z,16.67
2016-05-24T10:57:36.032Z,16.75
2016-05-24T10:58:35.846Z,16.95
2016-05-24T10:59:35.834Z,17.06
2016-05-24T11:00:35.851Z,17.13
2016-05-24T11:01:35.949Z,17.23
2016-05-24T11:02:35.935Z,17.13
2016-05-24T11:03:35.923Z,17.04
2016-05-24T11:04:35.894Z,17.04
2016-05-24T11:05:35.865Z,17.03
2016-05-24T11:06:35.853Z,16.75
2016-05-24T11:07:35.746Z,16.62
2016-05-24T11:08:35.873Z,16.52
2016-05-24T11:09:35.642Z,16.53
2016-05-24T11:10:35.629Z,16.23
2016-05-24T11:11:35.584Z,16.26
2016-05-24T11:12:35.728Z,15.97
2016-05-24T11:13:35.714Z,15.97
2016-05-24T11:14:35.546Z,16.01
2016-05-24T11:15:35.955Z,15.89
2016-05-24T11:16:35.644Z,15.88
2016-05-24T11:17:35.664Z,15.88
2016-05-24T11:18:35.603Z,15.78
2016-05-24T11:19:35.591Z,15.78
2016-05-24T11:20:35.594Z,15.92
2016-05-24T11:21:35.549Z,16
2016-05-24T11:22:35.380Z,16.04
2016-05-24T11:23:35.664Z,16.11
2016-05-24T11:24:35.494Z,16.37
2016-05-24T11:25:35.482Z,16.53
2016-05-24T11:26:35.469Z,16.6
2016-05-24T11:27:35.299Z,16.68
2016-05-24T11:28:35.271Z,16.56
2016-05-24T11:29:35.399Z,16.65
2016-05-24T11:30:35.230Z,16.56
2016-05-24T11:31:35.357Z,16.59
2016-05-24T11:32:35.391Z,16.55
2016-05-24T11:33:35.316Z,16.52
2016-05-24T11:34:35.304Z,16.45
2016-05-24T11:35:35.306Z,16.31
2016-05-24T11:36:35.245Z,16.37
2016-05-24T11:37:35.232Z,16.55
2016-05-24T11:38:35.061Z,16.6
2016-05-24T11:39:35.223Z,16.7
2016-05-24T11:40:35.051Z,16.74
2016-05-24T11:41:34.912Z,16.67
2016-05-24T11:42:35.150Z,16.63
2016-05-24T11:43:35.121Z,16.38
2016-05-24T11:44:35.108Z,16.49
2016-05-24T11:45:35.441Z,16.56
2016-05-24T11:46:34.910Z,16.33
2016-05-24T11:47:35.038Z,16.14
2016-05-24T11:48:34.884Z,16.33
2016-05-24T11:49:35.012Z,16.31
2016-05-24T11:50:34.984Z,16.33
2016-05-24T11:51:34.956Z,16.37
2016-05-24T11:52:35.004Z,16.5
2016-05-24T11:53:34.945Z,16.68
2016-05-24T11:54:34.823Z,16.81
2016-05-24T11:55:34.888Z,16.92
2016-05-24T11:56:34.969Z,16.96
2016-05-24T11:57:34.846Z,16.99
2016-05-24T11:58:34.833Z,17.07
2016-05-24T11:59:34.805Z,17.14
2016-05-24T12:00:34.932Z,17.3
2016-05-24T12:01:34.763Z,17.38
2016-05-24T12:02:34.751Z,17.35
2016-05-24T12:03:34.721Z,17.47
2016-05-24T12:04:34.709Z,17.47
2016-05-24T12:05:34.540Z,17.51
2016-05-24T12:06:34.668Z,17.28
2016-05-24T12:07:34.639Z,17.47
2016-05-24T12:08:34.704Z,17.33
2016-05-24T12:09:34.613Z,17.26
2016-05-24T12:10:34.601Z,16.96
2016-05-24T12:11:34.587Z,16.71
2016-05-24T12:12:34.543Z,16.65
2016-05-24T12:13:34.545Z,16.52
2016-05-24T12:14:34.673Z,16.35
2016-05-24T12:15:34.536Z,16.15
2016-05-24T12:16:34.506Z,15.76
2016-05-24T12:17:34.462Z,15.75
2016-05-24T12:18:34.434Z,15.45
2016-05-24T12:19:34.437Z,15.36
2016-05-24T12:20:34.252Z,15.46
2016-05-24T12:21:34.410Z,15.27
2016-05-24T12:22:34.367Z,15.15
2016-05-24T12:23:34.353Z,14.98
2016-05-24T12:24:34.544Z,15.15
2016-05-24T12:25:34.327Z,15.27
2016-05-24T12:26:34.128Z,15.26
2016-05-24T12:27:34.177Z,15.35
2016-05-24T12:28:34.241Z,15.41
2016-05-24T12:29:34.229Z,15.56
2016-05-24T12:30:34.294Z,15.6
2016-05-24T12:31:34.219Z,15.68
2016-05-24T12:32:34.035Z,15.61
2016-05-24T12:33:33.990Z,15.67
2016-05-24T12:34:34.118Z,15.88
2016-05-24T12:35:34.121Z,16.14
2016-05-24T12:36:34.077Z,16.42
2016-05-24T12:37:34.063Z,16.68
2016-05-24T12:38:34.051Z,16.65
2016-05-24T12:39:33.803Z,16.7
2016-05-24T12:40:34.118Z,16.81
2016-05-24T12:41:33.840Z,16.92
2016-05-24T12:42:33.967Z,17.11
2016-05-24T12:43:33.939Z,17.08
2016-05-24T12:44:34.034Z,16.86
2016-05-24T12:45:34.178Z,16.73
2016-05-24T12:46:33.885Z,16.53
2016-05-24T12:47:33.918Z,16.33
2016-05-24T12:48:33.858Z,16.12
2016-05-24T12:49:33.845Z,16.26
2016-05-24T12:50:33.833Z,16.15
2016-05-24T12:51:33.789Z,16.14
2016-05-24T12:52:33.776Z,16.04
2016-05-24T12:53:33.763Z,16.25
2016-05-24T12:54:33.750Z,16.25